Time;durP1;ratioP1;P1;durP2;ratioP2;P2;SDS_P1;SDS_P2;PMS_P1;PMS_P2;Temp;Humidity;BMP_temperature;BMP_pressure;BME280_temperature;BME280_humidity;BME280_pressure;Samples;Min_cycle;Max_cycle;Signal;HPM_P1;HPM_P2
2022/10/13 00:01:17;;;;;;;0.40;0.40;;;9.70;99.90;;;;;;5077557;28;20048;-84
2022/10/13 00:03:46;;;;;;;1.33;1.30;;;9.80;99.90;;;;;;5082149;28;20040;-85
2022/10/13 00:06:14;;;;;;;0.50;0.50;;;9.70;99.90;;;;;;5082323;28;20040;-84
2022/10/13 00:12:21;;;;;;;0.80;0.80;;;9.70;99.90;;;;;;5080413;28;20035;-86
2022/10/13 00:14:46;;;;;;;0.30;0.30;;;9.80;99.90;;;;;;5069501;28;20055;-85
2022/10/13 00:17:12;;;;;;;2.22;0.98;;;9.80;99.90;;;;;;5071897;28;20047;-85
2022/10/13 00:19:38;;;;;;;0.90;0.90;;;9.80;99.90;;;;;;5063859;28;20044;-86
2022/10/13 00:22:03;;;;;;;0.45;0.45;;;9.80;99.90;;;;;;5066537;28;20048;-86
2022/10/13 00:24:29;;;;;;;2.38;1.27;;;9.70;99.90;;;;;;5070763;28;20028;-85
2022/10/13 00:26:55;;;;;;;0.55;0.55;;;10.00;99.90;;;;;;5089227;28;20040;-84
2022/10/13 00:29:20;;;;;;;0.63;0.63;;;9.80;99.90;;;;;;5085170;28;20043;-86
2022/10/13 00:31:46;;;;;;;0.43;0.43;;;9.80;99.90;;;;;;5080076;28;20404;-86
2022/10/13 00:34:12;;;;;;;0.40;0.40;;;;;;;;;;5066341;28;20374;-85
2022/10/13 00:36:38;;;;;;;;;;;9.90;99.90;;;;;;5091371;28;20040;-85
2022/10/13 00:39:03;;;;;;;0.82;0.82;;;9.90;99.90;;;;;;5054381;28;20341;-83
2022/10/13 00:41:29;;;;;;;0.47;0.47;;;9.90;99.90;;;;;;5082068;28;20093;-88
2022/10/13 00:44:01;;;;;;;0.30;0.30;;;9.90;99.90;;;;;;5072736;28;20074;-85
2022/10/13 00:46:30;;;;;;;0.40;0.40;;;9.90;99.90;;;;;;5077107;28;20072;-89
2022/10/13 00:49:06;;;;;;;0.95;0.95;;;9.90;99.90;;;;;;5089804;28;20044;-84
2022/10/13 00:51:39;;;;;;;0.73;0.73;;;9.90;99.90;;;;;;5096089;28;20561;-84
2022/10/13 00:54:06;;;;;;;0.50;0.50;;;10.00;99.90;;;;;;5082843;28;20058;-84
2022/10/13 00:56:32;;;;;;;1.48;1.00;;;10.00;99.90;;;;;;5080878;28;20131;-85
2022/10/13 00:58:59;;;;;;;;;;;10.00;99.90;;;;;;5066896;28;20039;-86
2022/10/13 01:01:24;;;;;;;0.80;0.80;;;10.00;99.90;;;;;;5082078;28;19927;-86
2022/10/13 01:03:51;;;;;;;0.65;0.65;;;10.00;99.90;;;;;;5075810;28;20393;-84
2022/10/13 01:06:17;;;;;;;0.50;0.50;;;10.00;99.90;;;;;;5059369;28;20046;-84
2022/10/13 01:08:43;;;;;;;0.68;0.68;;;10.00;99.90;;;;;;5065784;28;20036;-85
2022/10/13 01:11:46;;;;;;;1.02;0.68;;;10.00;99.90;;;;;;5073297;28;20104;-84
2022/10/13 01:14:24;;;;;;;0.50;0.50;;;9.90;99.90;;;;;;5081838;28;20051;-85
2022/10/13 01:17:08;;;;;;;0.95;0.95;;;9.90;99.90;;;;;;5083355;28;20040;-84
2022/10/13 01:19:59;;;;;;;0.43;0.43;;;9.90;99.90;;;;;;5083208;28;20046;-84
2022/10/13 01:22:27;;;;;;;0.40;0.40;;;9.90;99.90;;;;;;5084523;28;20091;-84
2022/10/13 01:25:31;;;;;;;0.40;0.40;;;9.90;99.90;;;;;;5086117;28;20492;-83
2022/10/13 01:28:12;;;;;;;0.43;0.43;;;9.90;99.90;;;;;;5052353;28;20381;-84
2022/10/13 01:30:45;;;;;;;0.40;0.40;;;9.90;99.90;;;;;;5073027;28;20044;-85
2022/10/13 01:33:35;;;;;;;0.60;0.60;;;9.90;99.90;;;;;;5083960;28;20076;-83
2022/10/13 01:36:33;;;;;;;0.82;0.82;;;9.90;99.90;;;;;;5089339;28;20123;-83
2022/10/13 01:39:14;;;;;;;0.50;0.50;;;9.90;99.90;;;;;;5077931;28;20038;-85
2022/10/13 01:41:50;;;;;;;0.30;0.30;;;9.90;99.90;;;;;;5083189;28;20079;-85
2022/10/13 01:44:37;;;;;;;0.63;0.63;;;9.90;99.90;;;;;;5091163;28;20047;-84
2022/10/13 01:47:04;;;;;;;0.40;0.40;;;9.90;99.90;;;;;;5082080;28;20080;-86
2022/10/13 01:49:34;;;;;;;0.50;0.50;;;10.00;99.90;;;;;;5048912;28;20043;-86
2022/10/13 01:52:07;;;;;;;0.57;0.57;;;10.00;99.90;;;;;;5085889;28;20054;-83
2022/10/13 01:54:34;;;;;;;0.60;0.60;;;9.90;99.90;;;;;;5081641;28;20043;-89
2022/10/13 01:57:00;;;;;;;0.50;0.50;;;10.00;99.90;;;;;;5068044;28;20090;-86
2022/10/13 01:59:29;;;;;;;0.40;0.40;;;9.90;99.90;;;;;;5079362;28;20448;-85
2022/10/13 02:02:01;;;;;;;1.45;0.63;;;9.90;99.90;;;;;;5070438;28;20036;-87
2022/10/13 02:04:54;;;;;;;1.45;1.35;;;10.00;99.90;;;;;;5090217;28;20043;-84
2022/10/13 02:07:39;;;;;;;0.40;0.40;;;9.90;99.90;;;;;;5068677;28;20500;-86
2022/10/13 02:10:51;;;;;;;0.52;0.52;;;10.00;99.90;;;;;;5066186;28;20056;-84
2022/10/13 02:13:20;;;;;;;0.50;0.50;;;9.90;99.90;;;;;;5069055;28;20493;-84
2022/10/13 02:15:53;;;;;;;0.40;0.40;;;9.90;99.90;;;;;;5064392;28;20051;-86
2022/10/13 02:18:24;;;;;;;0.50;0.50;;;9.90;99.90;;;;;;5080080;28;20059;-86
2022/10/13 02:20:51;;;;;;;0.60;0.60;;;9.90;99.90;;;;;;5079289;28;20043;-84
2022/10/13 02:23:18;;;;;;;0.50;0.50;;;9.90;99.90;;;;;;5078147;28;20094;-86
2022/10/13 02:25:44;;;;;;;;;;;9.90;99.90;;;;;;5067318;28;20086;-87
2022/10/13 02:28:13;;;;;;;0.32;0.32;;;9.80;99.90;;;;;;5066080;28;19965;-84
2022/10/13 02:30:40;;;;;;;2.13;1.33;;;9.80;99.90;;;;;;5068648;28;20051;-84
2022/10/13 02:33:07;;;;;;;1.67;1.58;;;9.80;99.90;;;;;;5061359;28;20056;-86
2022/10/13 02:35:33;;;;;;;0.57;0.57;;;9.80;99.90;;;;;;5079089;28;20398;-85
2022/10/13 02:37:59;;;;;;;0.63;0.63;;;9.80;99.90;;;;;;5086866;28;20048;-84
2022/10/13 02:40:25;;;;;;;0.90;0.80;;;9.80;99.90;;;;;;5088195;28;20040;-85
2022/10/13 02:42:51;;;;;;;0.57;0.57;;;9.80;99.90;;;;;;5060985;28;20060;-85
2022/10/13 02:45:17;;;;;;;0.40;0.40;;;9.80;99.90;;;;;;5067538;28;20497;-84
2022/10/13 02:47:42;;;;;;;0.80;0.80;;;9.80;99.90;;;;;;5085528;28;20048;-86
2022/10/13 02:50:08;;;;;;;1.33;1.33;;;9.80;99.90;;;;;;5080798;28;20166;-86
2022/10/13 02:52:34;;;;;;;1.75;1.02;;;9.80;99.90;;;;;;5087783;28;20064;-85
2022/10/13 02:55:01;;;;;;;0.95;0.95;;;9.80;99.90;;;;;;5049578;28;20126;-86
2022/10/13 02:57:26;;;;;;;;;;;9.70;99.90;;;;;;5073374;28;20165;-85
2022/10/13 02:59:52;;;;;;;0.50;0.50;;;9.70;99.90;;;;;;5095220;28;19970;-85
2022/10/13 03:02:18;;;;;;;0.40;0.40;;;9.70;99.90;;;;;;5091915;28;20033;-83
2022/10/13 03:04:44;;;;;;;0.88;0.88;;;9.70;99.90;;;;;;5088205;28;20106;-87
2022/10/13 03:07:09;;;;;;;2.83;1.35;;;9.70;99.90;;;;;;5092150;28;20074;-85
2022/10/13 03:09:35;;;;;;;0.60;0.60;;;9.70;99.90;;;;;;5073867;28;20467;-86
2022/10/13 03:12:01;;;;;;;0.73;0.60;;;9.70;99.90;;;;;;5085127;28;20126;-86
2022/10/13 03:14:27;;;;;;;1.55;1.55;;;9.70;99.90;;;;;;5079740;28;20467;-83
2022/10/13 03:16:52;;;;;;;0.60;0.60;;;9.40;99.90;;;;;;5091553;28;20087;-83
2022/10/13 03:19:18;;;;;;;0.70;0.68;;;9.70;99.90;;;;;;5062917;28;20127;-83
2022/10/13 03:21:44;;;;;;;1.33;1.33;;;9.70;99.90;;;;;;5080978;28;20062;-86
2022/10/13 03:24:09;;;;;;;2.70;1.58;;;9.80;99.90;;;;;;5062648;28;20051;-85
2022/10/13 03:26:35;;;;;;;1.50;0.68;;;9.80;99.90;;;;;;5083539;28;20047;-84
2022/10/13 03:29:01;;;;;;;0.60;0.60;;;9.70;99.90;;;;;;5086811;28;20040;-84
2022/10/13 03:31:27;;;;;;;0.63;0.63;;;9.70;99.90;;;;;;5083227;28;20044;-84
2022/10/13 03:33:58;;;;;;;0.70;0.70;;;9.80;99.90;;;;;;5078251;28;20109;-86
2022/10/13 03:36:24;;;;;;;2.38;2.28;;;9.70;99.90;;;;;;5082509;28;20063;-85
2022/10/13 03:38:50;;;;;;;0.60;0.60;;;9.70;99.90;;;;;;5069297;28;20040;-85
2022/10/13 03:41:18;;;;;;;0.63;0.63;;;9.70;99.90;;;;;;5053435;28;20048;-86
2022/10/13 03:43:44;;;;;;;0.60;0.60;;;9.70;99.90;;;;;;5048332;28;20044;-86
2022/10/13 03:46:12;;;;;;;0.50;0.50;;;9.70;99.90;;;;;;5048557;28;20143;-86
2022/10/13 03:48:38;;;;;;;0.85;0.85;;;9.70;99.90;;;;;;5065282;28;20066;-86
2022/10/13 03:51:08;;;;;;;0.50;0.50;;;9.90;99.90;;;;;;5092765;28;20481;-86
2022/10/13 03:53:34;;;;;;;0.38;0.38;;;9.70;99.90;;;;;;5062258;28;20044;-84
2022/10/13 03:56:00;;;;;;;0.70;0.70;;;9.80;99.90;;;;;;5082717;28;20141;-84
2022/10/13 03:58:27;;;;;;;;;;;9.70;99.90;;;;;;5066846;28;20044;-83
2022/10/13 04:00:53;;;;;;;;;;;9.70;99.90;;;;;;5070858;28;19930;-84
2022/10/13 04:03:24;;;;;;;1.63;1.52;;;9.70;99.90;;;;;;5077881;28;19981;-85
2022/10/13 04:05:50;;;;;;;0.80;0.80;;;9.70;99.90;;;;;;5085610;28;20043;-87
2022/10/13 04:08:16;;;;;;;1.55;0.80;;;9.80;99.90;;;;;;5096053;28;20047;-85
2022/10/13 04:10:41;;;;;;;0.82;0.82;;;10.10;99.90;;;;;;5078066;28;20055;-85
2022/10/13 04:13:07;;;;;;;0.55;0.55;;;9.80;99.90;;;;;;5088109;28;20060;-87
2022/10/13 04:15:38;;;;;;;0.73;0.73;;;9.80;99.90;;;;;;5044520;28;20401;-85
2022/10/13 04:18:05;;;;;;;0.70;0.70;;;9.80;99.90;;;;;;5063193;28;20047;-85
2022/10/13 04:20:38;;;;;;;0.90;0.90;;;9.80;99.90;;;;;;5070879;28;20098;-85
2022/10/13 04:23:10;;;;;;;0.40;0.40;;;9.80;99.90;;;;;;5085505;28;20058;-84
2022/10/13 04:25:37;;;;;;;1.70;1.27;;;9.80;99.90;;;;;;5073004;28;20031;-86
2022/10/13 04:28:04;;;;;;;0.60;0.60;;;9.80;99.90;;;;;;5091510;28;20076;-87
2022/10/13 04:30:36;;;;;;;0.82;0.82;;;9.80;99.90;;;;;;5089289;28;21041;-88
2022/10/13 04:33:02;;;;;;;0.40;0.40;;;9.80;99.90;;;;;;5069804;28;20055;-85
2022/10/13 04:35:28;;;;;;;0.70;0.70;;;9.70;99.90;;;;;;5087804;28;20497;-85
2022/10/13 04:37:56;;;;;;;1.27;1.13;;;9.70;99.90;;;;;;5076746;28;20044;-85
2022/10/13 04:40:24;;;;;;;0.50;0.50;;;9.70;99.90;;;;;;5080028;28;20056;-88
2022/10/13 04:42:51;;;;;;;0.60;0.60;;;9.70;99.90;;;;;;5080710;28;20398;-85
2022/10/13 04:45:17;;;;;;;0.40;0.40;;;9.70;99.90;;;;;;5082197;28;20127;-85
2022/10/13 04:47:42;;;;;;;0.85;0.85;;;9.70;99.90;;;;;;5071615;28;20118;-85
2022/10/13 04:50:09;;;;;;;0.85;0.85;;;9.70;99.90;;;;;;5066551;28;20077;-86
2022/10/13 04:52:34;;;;;;;;;;;9.70;99.90;;;;;;5077998;28;20516;-85
2022/10/13 04:55:00;;;;;;;0.50;0.50;;;9.70;99.90;;;;;;5067460;28;19916;-85
2022/10/13 04:57:26;;;;;;;0.80;0.77;;;9.70;99.90;;;;;;5069341;28;20102;-85
2022/10/13 04:59:52;;;;;;;0.52;0.52;;;10.40;99.90;;;;;;5083424;28;20538;-86
2022/10/13 05:02:17;;;;;;;0.70;0.70;;;9.70;99.90;;;;;;5074961;28;20040;-86
2022/10/13 05:04:43;;;;;;;0.98;0.98;;;9.80;99.90;;;;;;5110736;28;20036;-88
2022/10/13 05:07:09;;;;;;;0.50;0.50;;;9.70;99.90;;;;;;5101602;28;20051;-87
2022/10/13 05:09:34;;;;;;;0.98;0.90;;;9.70;99.90;;;;;;5079581;28;20044;-85
2022/10/13 05:12:00;;;;;;;0.50;0.50;;;9.70;99.90;;;;;;5071305;28;20481;-86
2022/10/13 05:14:26;;;;;;;0.80;0.80;;;9.70;99.90;;;;;;5090576;28;20043;-84
2022/10/13 05:16:51;;;;;;;0.55;0.55;;;9.80;99.90;;;;;;5089427;28;20039;-83
2022/10/13 05:19:17;;;;;;;0.60;0.60;;;9.80;99.90;;;;;;5071229;28;20055;-84
2022/10/13 05:21:43;;;;;;;1.33;1.33;;;9.80;99.90;;;;;;5086107;28;20389;-88
2022/10/13 05:24:12;;;;;;;0.50;0.50;;;9.80;99.90;;;;;;5084995;28;20040;-86
2022/10/13 05:26:38;;;;;;;1.05;1.05;;;9.80;99.90;;;;;;5066974;28;20381;-87
2022/10/13 05:29:05;;;;;;;1.20;1.20;;;9.80;99.90;;;;;;5067474;28;20056;-85
2022/10/13 05:31:32;;;;;;;0.60;0.60;;;9.80;99.90;;;;;;5076448;28;20036;-86
2022/10/13 05:33:58;;;;;;;0.50;0.50;;;9.80;99.90;;;;;;5087889;28;20165;-85
2022/10/13 05:36:26;;;;;;;0.30;0.30;;;9.80;99.90;;;;;;5083552;28;20053;-87
2022/10/13 05:38:54;;;;;;;0.75;0.75;;;9.80;99.90;;;;;;5092089;28;20047;-83
2022/10/13 05:41:21;;;;;;;0.70;0.70;;;9.80;99.90;;;;;;5077015;28;20062;-84
2022/10/13 05:43:47;;;;;;;1.13;0.95;;;9.80;99.90;;;;;;5088108;28;20036;-86
2022/10/13 05:46:13;;;;;;;0.80;0.80;;;9.80;99.90;;;;;;5087998;28;20047;-85
2022/10/13 05:48:39;;;;;;;;;;;9.80;99.90;;;;;;5084795;28;20035;-87
2022/10/13 05:51:31;;;;;;;3.40;1.15;;;9.80;99.90;;;;;;5069536;28;19920;-87
2022/10/13 05:54:21;;;;;;;0.95;0.95;;;9.80;99.90;;;;;;5080181;28;20140;-87
2022/10/13 05:56:55;;;;;;;2.25;1.60;;;9.80;99.90;;;;;;5080157;28;20040;-85
2022/10/13 05:59:22;;;;;;;1.00;1.00;;;9.80;99.90;;;;;;5086970;28;20036;-85
2022/10/13 06:01:48;;;;;;;1.23;1.23;;;9.80;99.90;;;;;;5055769;28;20036;-86
2022/10/13 06:04:19;;;;;;;0.70;0.70;;;9.80;99.90;;;;;;5086020;28;20048;-86
2022/10/13 06:06:46;;;;;;;0.55;0.55;;;9.80;99.90;;;;;;5086736;28;20564;-84
2022/10/13 06:09:12;;;;;;;0.35;0.35;;;9.80;99.90;;;;;;5085653;28;20043;-85
2022/10/13 06:11:37;;;;;;;0.70;0.70;;;9.90;99.90;;;;;;5088593;28;20128;-84
2022/10/13 06:14:03;;;;;;;1.38;1.27;;;9.80;99.90;;;;;;5067100;28;20067;-88
2022/10/13 06:16:29;;;;;;;0.50;0.50;;;9.80;99.90;;;;;;5062102;28;20051;-86
2022/10/13 06:18:55;;;;;;;1.77;1.67;;;9.80;99.90;;;;;;5055311;28;20044;-87
2022/10/13 06:21:20;;;;;;;0.43;0.43;;;9.90;99.90;;;;;;5049765;28;20036;-85
2022/10/13 06:23:46;;;;;;;0.60;0.60;;;9.90;99.90;;;;;;5093761;28;20064;-87
2022/10/13 06:26:12;;;;;;;1.02;0.70;;;9.90;99.90;;;;;;5071607;28;20049;-86
2022/10/13 06:28:37;;;;;;;0.47;0.47;;;9.90;99.90;;;;;;5051129;28;20094;-86
2022/10/13 06:31:05;;;;;;;0.65;0.65;;;10.00;99.90;;;;;;5044107;28;20115;-87
2022/10/13 06:33:31;;;;;;;0.63;0.57;;;10.00;99.90;;;;;;5084225;28;20256;-86
2022/10/13 06:36:01;;;;;;;0.98;0.98;;;10.00;99.90;;;;;;5080304;28;20063;-87
2022/10/13 06:38:27;;;;;;;0.38;0.38;;;10.00;99.90;;;;;;5086846;28;20063;-88
2022/10/13 06:40:53;;;;;;;0.63;0.63;;;10.10;99.90;;;;;;5070240;28;20070;-87
2022/10/13 06:43:18;;;;;;;0.93;0.93;;;10.10;99.90;;;;;;5071601;28;20396;-85
2022/10/13 06:45:44;;;;;;;0.80;0.80;;;10.20;99.90;;;;;;5085255;28;20047;-88
2022/10/13 06:48:10;;;;;;;0.65;0.65;;;10.20;99.90;;;;;;5079267;28;20044;-88
2022/10/13 06:50:35;;;;;;;0.52;0.52;;;10.30;99.90;;;;;;5071530;28;20074;-86
2022/10/13 06:53:01;;;;;;;0.98;0.98;;;10.30;99.90;;;;;;5081100;28;20040;-84
2022/10/13 06:55:27;;;;;;;0.85;0.80;;;10.40;99.90;;;;;;5083091;28;20044;-82
2022/10/13 06:57:53;;;;;;;0.60;0.60;;;10.30;99.90;;;;;;5082390;28;20162;-85
2022/10/13 07:00:18;;;;;;;1.15;1.15;;;10.40;99.90;;;;;;5074349;28;20083;-85
2022/10/13 07:02:47;;;;;;;0.40;0.40;;;10.50;99.90;;;;;;5088121;28;20039;-88
2022/10/13 07:05:13;;;;;;;0.60;0.60;;;10.60;99.90;;;;;;5070372;28;20115;-85
2022/10/13 07:07:39;;;;;;;0.55;0.55;;;10.60;99.90;;;;;;5066385;28;20166;-88
2022/10/13 07:10:05;;;;;;;0.52;0.52;;;10.60;99.90;;;;;;5086767;28;20065;-88
2022/10/13 07:12:30;;;;;;;1.20;1.20;;;10.60;99.90;;;;;;5052356;28;20040;-86
2022/10/13 07:14:56;;;;;;;0.45;0.45;;;10.70;99.90;;;;;;5077997;28;20043;-84
2022/10/13 07:17:22;;;;;;;0.65;0.65;;;10.80;99.90;;;;;;5060930;28;20119;-89
2022/10/13 07:19:48;;;;;;;0.77;0.77;;;10.70;99.90;;;;;;5065595;28;20040;-86
2022/10/13 07:22:14;;;;;;;0.47;0.47;;;10.80;99.90;;;;;;5089171;28;20055;-84
2022/10/13 07:24:40;;;;;;;0.50;0.50;;;10.90;99.90;;;;;;5092957;28;20040;-84
2022/10/13 07:27:05;;;;;;;0.40;0.40;;;11.00;99.90;;;;;;5098553;28;20040;-83
2022/10/13 07:29:31;;;;;;;0.52;0.52;;;11.10;99.90;;;;;;5097715;28;20036;-83
2022/10/13 07:31:57;;;;;;;0.60;0.60;;;11.20;99.90;;;;;;5092188;28;20373;-85
2022/10/13 07:34:22;;;;;;;0.75;0.75;;;11.30;99.90;;;;;;5079858;28;20070;-86
2022/10/13 07:36:48;;;;;;;0.50;0.50;;;11.40;99.90;;;;;;5091610;28;20036;-85
2022/10/13 07:39:14;;;;;;;0.63;0.63;;;11.50;99.90;;;;;;5088195;28;20049;-88
2022/10/13 07:41:40;;;;;;;1.15;1.05;;;11.60;99.90;;;;;;5084246;28;20436;-90
2022/10/13 07:44:06;;;;;;;0.43;0.43;;;11.60;99.90;;;;;;5083992;28;20039;-87
2022/10/13 07:46:31;;;;;;;4.45;0.70;;;11.70;99.90;;;;;;5089503;28;20036;-84
2022/10/13 07:48:57;;;;;;;0.38;0.38;;;11.80;99.90;;;;;;5109462;28;20052;-86
2022/10/13 07:51:23;;;;;;;2.63;2.05;;;11.80;99.90;;;;;;5095412;28;20457;-88
2022/10/13 07:53:49;;;;;;;0.60;0.60;;;11.80;99.90;;;;;;5076223;28;20037;-84
2022/10/13 07:56:15;;;;;;;0.82;0.82;;;11.80;99.90;;;;;;5079310;28;20187;-87
2022/10/13 07:58:46;;;;;;;0.68;0.68;;;11.80;99.90;;;;;;5075598;28;20048;-87
2022/10/13 08:01:13;;;;;;;1.15;1.02;;;11.80;99.90;;;;;;5065018;28;20191;-86
2022/10/13 08:03:39;;;;;;;1.00;1.00;;;11.90;99.90;;;;;;5067876;28;20044;-87
2022/10/13 08:06:06;;;;;;;1.27;1.17;;;11.90;99.90;;;;;;5090736;28;20058;-84
2022/10/13 08:08:32;;;;;;;;;;;12.00;99.90;;;;;;5076590;28;20047;-85
2022/10/13 08:11:05;;;;;;;1.33;1.23;;;12.10;99.90;;;;;;5086033;28;19958;-85
2022/10/13 08:13:32;;;;;;;0.88;0.88;;;12.10;99.90;;;;;;5096432;28;20076;-87
2022/10/13 08:16:01;;;;;;;0.25;0.25;;;12.20;99.90;;;;;;5075009;28;20040;-84
2022/10/13 08:18:28;;;;;;;1.15;1.05;;;12.30;99.90;;;;;;5092611;28;20044;-88
2022/10/13 08:20:54;;;;;;;1.15;1.05;;;12.40;99.90;;;;;;5064038;28;20489;-84
2022/10/13 08:23:20;;;;;;;2.47;2.35;;;12.40;99.90;;;;;;5077523;28;20055;-85
2022/10/13 08:25:45;;;;;;;0.80;0.77;;;12.50;99.90;;;;;;5067717;28;20036;-88
2022/10/13 08:28:24;;;;;;;1.38;1.27;;;12.50;99.90;;;;;;5059310;28;20473;-87
2022/10/13 08:30:56;;;;;;;0.50;0.50;;;12.40;99.90;;;;;;5093666;28;20043;-85
2022/10/13 08:33:23;;;;;;;0.75;0.75;;;12.40;99.90;;;;;;5093717;28;20109;-86
2022/10/13 08:35:49;;;;;;;1.05;0.93;;;12.40;99.90;;;;;;5070573;28;20623;-85
2022/10/13 08:38:14;;;;;;;0.93;0.93;;;12.30;99.90;;;;;;5090728;28;20070;-87
2022/10/13 08:40:46;;;;;;;0.32;0.32;;;12.30;99.90;;;;;;5073377;28;20036;-86
2022/10/13 08:43:16;;;;;;;0.50;0.50;;;12.30;99.90;;;;;;5087423;28;20047;-86
2022/10/13 08:45:49;;;;;;;1.07;0.97;;;12.30;99.90;;;;;;5074488;28;20128;-89
2022/10/13 08:48:26;;;;;;;0.88;0.88;;;12.20;99.90;;;;;;5086509;28;20040;-86
2022/10/13 08:50:58;;;;;;;0.52;0.52;;;12.30;99.90;;;;;;5090380;28;20540;-87
2022/10/13 08:53:33;;;;;;;0.82;0.82;;;12.30;99.90;;;;;;5088881;28;20036;-85
2022/10/13 08:56:14;;;;;;;0.75;0.73;;;12.30;99.90;;;;;;5093482;28;20481;-85
2022/10/13 08:58:41;;;;;;;0.57;0.57;;;12.30;99.90;;;;;;5093073;28;20036;-85
2022/10/13 09:01:22;;;;;;;1.10;1.05;;;12.30;99.90;;;;;;5072165;28;20104;-85
2022/10/13 09:04:12;;;;;;;1.10;1.10;;;12.40;99.90;;;;;;5070197;28;20054;-86
2022/10/13 09:07:20;;;;;;;0.60;0.60;;;12.40;99.90;;;;;;5079917;28;20450;-86
2022/10/13 09:09:50;;;;;;;2.87;1.40;;;12.50;99.90;;;;;;5077615;28;20144;-86
2022/10/13 09:12:20;;;;;;;1.20;1.20;;;12.40;99.90;;;;;;5091217;28;20044;-87
2022/10/13 09:15:09;;;;;;;0.73;0.73;;;12.40;99.90;;;;;;5085086;28;20043;-85
2022/10/13 09:17:38;;;;;;;0.37;0.37;;;12.50;99.90;;;;;;5091810;28;20062;-87
2022/10/13 09:20:26;;;;;;;0.60;0.60;;;12.60;99.90;;;;;;5069110;28;20075;-85
2022/10/13 09:23:13;;;;;;;1.08;0.95;;;12.60;99.90;;;;;;5093361;28;20068;-86
2022/10/13 09:25:41;;;;;;;0.68;0.68;;;12.70;99.90;;;;;;5071793;28;20098;-83
2022/10/13 09:28:22;;;;;;;1.00;0.95;;;12.70;99.90;;;;;;5095047;28;20048;-84
2022/10/13 09:31:12;;;;;;;2.20;1.85;;;12.70;99.90;;;;;;5110272;28;20427;-84
2022/10/13 09:33:38;;;;;;;2.65;1.17;;;12.90;99.90;;;;;;5100662;28;20052;-85
2022/10/13 09:36:09;;;;;;;1.77;1.67;;;12.90;99.90;;;;;;5084273;28;20063;-85
2022/10/13 09:38:37;;;;;;;1.13;1.13;;;13.00;99.90;;;;;;5079331;28;20055;-87
2022/10/13 09:41:21;;;;;;;0.50;0.50;;;13.00;99.90;;;;;;5078708;28;20040;-86
2022/10/13 09:43:47;;;;;;;1.25;1.17;;;13.00;99.90;;;;;;5099710;28;20452;-87
2022/10/13 09:46:23;;;;;;;0.80;0.80;;;13.00;99.90;;;;;;5084979;28;20042;-88
2022/10/13 09:49:07;;;;;;;0.60;0.60;;;12.90;99.90;;;;;;5066179;28;20043;-90
2022/10/13 09:51:35;;;;;;;0.80;0.80;;;12.90;99.90;;;;;;5072984;28;20032;-88
2022/10/13 09:54:02;;;;;;;1.63;1.58;;;12.90;99.90;;;;;;5075183;28;20040;-85
2022/10/13 09:56:41;;;;;;;0.40;0.40;;;13.00;99.90;;;;;;5058374;28;20041;-85
2022/10/13 09:59:39;;;;;;;0.82;0.82;;;13.00;99.90;;;;;;5084646;28;20318;-86
2022/10/13 10:02:19;;;;;;;0.88;0.88;;;13.10;99.90;;;;;;5089924;28;20043;-87
2022/10/13 10:04:46;;;;;;;1.42;1.33;;;13.10;99.90;;;;;;5059445;28;20123;-87
2022/10/13 10:07:19;;;;;;;1.02;1.02;;;13.20;99.90;;;;;;5085006;28;20580;-87
2022/10/13 10:09:49;;;;;;;0.60;0.60;;;13.30;99.90;;;;;;5071533;28;20043;-88
2022/10/13 10:12:19;;;;;;;1.58;0.93;;;13.30;99.90;;;;;;5066602;28;20495;-85
2022/10/13 10:14:47;;;;;;;0.50;0.50;;;13.10;99.90;;;;;;5084049;28;20432;-89
2022/10/13 10:17:44;;;;;;;2.47;2.28;;;13.40;99.90;;;;;;5080345;28;20097;-86
2022/10/13 10:20:38;;;;;;;2.10;2.00;;;13.40;99.90;;;;;;5089271;28;20077;-86
2022/10/13 10:23:17;;;;;;;2.15;1.95;;;13.40;99.90;;;;;;5092209;28;20039;-88
2022/10/13 10:25:52;;;;;;;1.10;1.02;;;13.50;99.90;;;;;;5071822;28;20435;-85
2022/10/13 10:28:37;;;;;;;1.88;1.70;;;13.50;99.90;;;;;;5095681;28;20105;-88
2022/10/13 10:31:10;;;;;;;1.08;1.08;;;13.60;99.90;;;;;;5096992;28;20068;-88
2022/10/13 10:33:58;;;;;;;2.25;1.95;;;13.70;99.90;;;;;;5096654;28;20489;-84
2022/10/13 10:36:44;;;;;;;0.60;0.60;;;13.70;99.90;;;;;;5072776;28;20117;-87
2022/10/13 10:39:24;;;;;;;0.60;0.60;;;13.70;99.90;;;;;;5084310;28;20443;-88
2022/10/13 10:42:04;;;;;;;0.30;0.30;;;13.70;99.90;;;;;;5085387;28;20045;-88
2022/10/13 10:44:46;;;;;;;1.20;1.10;;;13.60;99.90;;;;;;5068150;28;20544;-86
2022/10/13 10:47:28;;;;;;;0.30;0.30;;;13.60;99.90;;;;;;5087328;28;20043;-86
2022/10/13 10:50:02;;;;;;;0.43;0.43;;;13.50;99.90;;;;;;5102764;28;20075;-89
2022/10/13 10:52:51;;;;;;;0.90;0.90;;;13.50;99.90;;;;;;5099059;28;20039;-88
2022/10/13 10:55:17;;;;;;;0.35;0.35;;;13.50;99.90;;;;;;5083686;28;20049;-87
2022/10/13 10:58:01;;;;;;;6.47;0.95;;;13.40;99.90;;;;;;5083850;28;20017;-86
2022/10/13 11:00:27;;;;;;;3.15;1.95;;;13.40;99.90;;;;;;5072995;28;20469;-89
2022/10/13 11:02:59;;;;;;;1.65;1.55;;;13.40;99.90;;;;;;5070914;28;20043;-88
2022/10/13 11:05:29;;;;;;;0.70;0.70;;;13.40;99.90;;;;;;5064866;28;20481;-89
2022/10/13 11:07:57;;;;;;;0.57;0.57;;;13.40;99.90;;;;;;5071442;28;20040;-88
2022/10/13 11:10:25;;;;;;;0.70;0.70;;;13.40;99.90;;;;;;5062241;28;20070;-90
2022/10/13 11:12:50;;;;;;;0.60;0.60;;;13.50;99.90;;;;;;5058214;28;20044;-89
2022/10/13 11:15:30;;;;;;;0.47;0.47;;;13.60;99.90;;;;;;5082506;28;20047;-85
2022/10/13 11:17:55;;;;;;;0.40;0.40;;;13.60;99.90;;;;;;5089168;28;20071;-87
2022/10/13 11:20:23;;;;;;;0.30;0.30;;;13.70;99.90;;;;;;5094160;28;20437;-89
2022/10/13 11:22:58;;;;;;;0.68;0.68;;;13.70;99.90;;;;;;5075646;28;20129;-90
2022/10/13 11:25:42;;;;;;;0.32;0.32;;;13.80;99.90;;;;;;5062133;28;20032;-88
2022/10/13 11:28:20;;;;;;;1.05;0.82;;;13.90;99.90;;;;;;5087089;28;20486;-88
2022/10/13 11:30:54;;;;;;;1.67;1.58;;;14.00;99.90;;;;;;5078200;28;20473;-87
2022/10/13 11:33:38;;;;;;;0.80;0.80;;;14.10;99.90;;;;;;5084482;28;20052;-88
2022/10/13 11:36:46;;;;;;;0.85;0.85;;;14.20;99.90;;;;;;5071061;28;20044;-87
2022/10/13 11:39:24;;;;;;;3.67;1.42;;;14.20;99.90;;;;;;5091829;28;20168;-88
2022/10/13 11:41:49;;;;;;;1.08;0.85;;;14.20;99.90;;;;;;5074528;28;20485;-87
2022/10/13 11:44:29;;;;;;;0.90;0.77;;;14.20;99.90;;;;;;5097476;28;20036;-86
2022/10/13 11:47:08;;;;;;;0.43;0.43;;;14.20;99.90;;;;;;5095284;28;20036;-87
2022/10/13 11:49:54;;;;;;;0.68;0.63;;;14.20;99.90;;;;;;5073031;28;20111;-86
2022/10/13 11:52:38;;;;;;;1.50;1.27;;;14.20;99.90;;;;;;5073774;28;20109;-88
2022/10/13 11:55:30;;;;;;;1.17;1.08;;;14.30;99.90;;;;;;5067170;28;20075;-82
2022/10/13 11:58:20;;;;;;;0.32;0.32;;;14.30;99.90;;;;;;5093885;28;20048;-82
2022/10/13 12:00:54;;;;;;;1.50;0.77;;;14.40;99.90;;;;;;5083280;28;20044;-84
2022/10/13 12:03:28;;;;;;;0.20;0.20;;;14.40;99.90;;;;;;5075472;28;20040;-82
2022/10/13 12:06:16;;;;;;;0.88;0.88;;;14.50;99.90;;;;;;5072095;28;20040;-86
2022/10/13 12:08:48;;;;;;;0.30;0.30;;;14.50;99.90;;;;;;5081801;28;20090;-83
2022/10/13 12:11:27;;;;;;;0.40;0.40;;;14.60;99.90;;;;;;5086802;28;20051;-86
2022/10/13 12:13:54;;;;;;;0.38;0.35;;;14.60;99.90;;;;;;5063515;28;20056;-82
2022/10/13 12:16:21;;;;;;;0.80;0.73;;;14.80;99.90;;;;;;5091338;28;20093;-83
2022/10/13 12:18:48;;;;;;;0.38;0.38;;;14.90;99.90;;;;;;5072268;28;20063;-85
2022/10/13 12:21:19;;;;;;;0.30;0.30;;;15.00;99.90;;;;;;5078279;28;20134;-81
2022/10/13 12:23:49;;;;;;;0.55;0.55;;;15.20;99.90;;;;;;5054160;28;20491;-85
2022/10/13 12:26:19;;;;;;;0.17;0.17;;;15.20;99.90;;;;;;5088514;28;20097;-84
2022/10/13 12:29:03;;;;;;;1.23;0.93;;;15.20;99.90;;;;;;5089231;28;20131;-85
2022/10/13 12:31:41;;;;;;;0.85;0.82;;;15.10;99.90;;;;;;5082506;28;20041;-83
2022/10/13 12:34:20;;;;;;;0.55;0.52;;;15.00;99.90;;;;;;5081487;28;20309;-83
2022/10/13 12:36:54;;;;;;;0.63;0.63;;;15.00;99.90;;;;;;5087594;28;20067;-84
2022/10/13 12:39:20;;;;;;;1.02;0.55;;;15.00;99.90;;;;;;5067600;28;20050;-83
2022/10/13 12:41:47;;;;;;;0.68;0.68;;;15.00;99.90;;;;;;5051586;28;20283;-84
2022/10/13 12:44:18;;;;;;;1.45;1.05;;;14.90;99.90;;;;;;5084256;28;20147;-82
2022/10/13 12:46:55;;;;;;;0.20;0.20;;;15.00;99.90;;;;;;5095855;28;20044;-84
2022/10/13 12:49:32;;;;;;;0.32;0.32;;;14.90;99.90;;;;;;5062863;28;20492;-85
2022/10/13 12:52:13;;;;;;;0.63;0.63;;;14.90;99.90;;;;;;5081544;28;20036;-86
2022/10/13 12:54:53;;;;;;;0.60;0.60;;;15.00;99.90;;;;;;5087296;28;20036;-83
2022/10/13 12:57:37;;;;;;;0.30;0.30;;;15.00;99.90;;;;;;5081881;28;20067;-85
2022/10/13 13:00:18;;;;;;;0.77;0.77;;;15.00;99.90;;;;;;5072259;28;20133;-85
2022/10/13 13:03:02;;;;;;;0.90;0.90;;;14.90;99.90;;;;;;5058002;28;20037;-84
2022/10/13 13:05:42;;;;;;;0.40;0.40;;;14.90;99.90;;;;;;5087147;28;20044;-85
2022/10/13 13:08:28;;;;;;;0.57;0.57;;;14.90;99.90;;;;;;5083226;28;20044;-84
2022/10/13 13:11:05;;;;;;;0.93;0.93;;;14.90;99.90;;;;;;5088452;28;20047;-85
2022/10/13 13:13:32;;;;;;;0.30;0.30;;;15.00;99.90;;;;;;5056395;28;20474;-85
2022/10/13 13:16:17;;;;;;;0.95;0.57;;;15.00;99.90;;;;;;5102279;28;20127;-84
2022/10/13 13:18:47;;;;;;;0.40;0.40;;;15.00;99.90;;;;;;5099375;28;20039;-83